createdAt,value
2023-05-02T00:00:41.384Z,85.32
2023-05-02T00:01:41.394Z,85.30
2023-05-02T00:02:41.498Z,85.24
2023-05-02T00:03:41.455Z,85.23
2023-05-02T00:04:41.361Z,85.24
2023-05-02T00:05:41.326Z,85.23
2023-05-02T00:06:41.362Z,85.21
2023-05-02T00:07:41.500Z,85.20
2023-05-02T00:08:41.527Z,85.19
2023-05-02T00:09:41.414Z,85.22
2023-05-02T00:10:41.279Z,85.22
2023-05-02T00:11:41.292Z,85.19
2023-05-02T00:12:41.251Z,85.18
2023-05-02T00:13:41.293Z,85.20
2023-05-02T00:14:41.680Z,85.18
2023-05-02T00:15:41.226Z,85.17
2023-05-02T00:16:41.353Z,85.12
2023-05-02T00:17:41.297Z,85.09
2023-05-02T00:18:41.151Z,85.11
2023-05-02T00:19:41.202Z,85.09
2023-05-02T00:20:41.494Z,85.08
2023-05-02T00:21:41.190Z,85.12
2023-05-02T00:22:41.118Z,85.10
2023-05-02T00:23:41.195Z,85.10
2023-05-02T00:24:41.097Z,85.14
2023-05-02T00:25:41.083Z,85.13
2023-05-02T00:26:41.733Z,85.12
2023-05-02T00:27:41.263Z,85.13
2023-05-02T00:28:41.036Z,85.15
2023-05-02T00:29:41.843Z,85.18
2023-05-02T00:30:41.081Z,85.17
2023-05-02T00:31:41.081Z,85.18
2023-05-02T00:32:41.334Z,85.18
2023-05-02T00:33:41.027Z,85.22
2023-05-02T00:34:41.001Z,85.26
2023-05-02T00:35:41.288Z,85.31
2023-05-02T00:36:41.500Z,85.34
2023-05-02T00:37:40.958Z,85.38
2023-05-02T00:38:41.499Z,85.41
2023-05-02T00:39:41.044Z,85.45
2023-05-02T00:40:40.933Z,85.44
2023-05-02T00:41:41.516Z,85.47
2023-05-02T00:42:40.882Z,85.52
2023-05-02T00:43:40.892Z,85.53
2023-05-02T00:44:40.995Z,85.54
2023-05-02T00:45:40.906Z,85.52
2023-05-02T00:46:41.570Z,85.50
2023-05-02T00:47:40.904Z,85.52
2023-05-02T00:48:40.811Z,85.54
2023-05-02T00:49:40.828Z,85.55
2023-05-02T00:50:41.135Z,85.57
2023-05-02T00:51:40.812Z,85.58
2023-05-02T00:52:40.762Z,85.60
2023-05-02T00:53:40.781Z,85.57
2023-05-02T00:54:40.757Z,85.57
2023-05-02T00:55:40.767Z,85.53
2023-05-02T00:56:41.019Z,85.55
2023-05-02T00:57:40.910Z,85.53
2023-05-02T00:58:40.703Z,85.49
2023-05-02T00:59:40.807Z,85.45
2023-05-02T01:00:40.774Z,85.42
2023-05-02T01:01:40.734Z,85.44
2023-05-02T01:02:40.824Z,85.44
2023-05-02T01:03:41.028Z,85.44
2023-05-02T01:04:40.610Z,85.42
2023-05-02T01:05:40.902Z,85.44
2023-05-02T01:06:40.758Z,85.45
2023-05-02T01:07:40.926Z,85.49
2023-05-02T01:08:40.925Z,85.49
2023-05-02T01:09:40.602Z,85.51
2023-05-02T01:10:40.697Z,85.51
2023-05-02T01:11:40.766Z,85.54
2023-05-02T01:12:41.102Z,85.55
2023-05-02T01:13:40.540Z,85.54
2023-05-02T01:14:40.625Z,85.57
2023-05-02T01:15:40.527Z,85.60
2023-05-02T01:16:40.625Z,85.67
2023-05-02T01:17:40.570Z,85.69
2023-05-02T01:18:40.478Z,85.72
2023-05-02T01:19:40.615Z,85.74
2023-05-02T01:20:40.435Z,85.80
2023-05-02T01:21:40.461Z,85.79
2023-05-02T01:22:40.810Z,85.85
2023-05-02T01:23:40.682Z,85.87
2023-05-02T01:24:40.382Z,85.88
2023-05-02T01:25:40.613Z,85.92
2023-05-02T01:26:40.357Z,85.96
2023-05-02T01:27:40.611Z,85.98
2023-05-02T01:28:40.539Z,86.00
2023-05-02T01:29:40.355Z,86.06
2023-05-02T01:30:40.316Z,86.11
2023-05-02T01:31:40.382Z,86.18
2023-05-02T01:32:40.445Z,86.24
2023-05-02T01:33:40.551Z,86.26
2023-05-02T01:34:40.418Z,86.28
2023-05-02T01:35:40.551Z,86.32
2023-05-02T01:36:40.248Z,86.40
2023-05-02T01:37:40.254Z,86.45
2023-05-02T01:38:40.233Z,86.48
2023-05-02T01:39:40.261Z,86.47
2023-05-02T01:40:40.303Z,86.51
2023-05-02T01:41:40.571Z,86.59
2023-05-02T01:42:40.849Z,86.63
2023-05-02T01:43:40.561Z,86.68
2023-05-02T01:44:40.191Z,86.75
2023-05-02T01:45:40.184Z,86.79
2023-05-02T01:46:40.237Z,86.87
2023-05-02T01:47:40.327Z,86.86
2023-05-02T01:48:40.281Z,86.90
2023-05-02T01:49:40.121Z,86.92
2023-05-02T01:50:40.251Z,86.91
2023-05-02T01:51:40.691Z,86.90
2023-05-02T01:52:40.106Z,86.89
2023-05-02T01:53:40.132Z,86.87
2023-05-02T01:54:40.128Z,86.86
2023-05-02T01:55:40.036Z,86.85
2023-05-02T01:56:40.043Z,86.83
2023-05-02T01:57:40.026Z,86.84
2023-05-02T01:58:40.365Z,86.87
2023-05-02T01:59:40.048Z,86.82
2023-05-02T02:00:40.312Z,86.80
2023-05-02T02:01:40.209Z,86.77
2023-05-02T02:02:39.965Z,86.79
2023-05-02T02:03:39.993Z,86.81
2023-05-02T02:04:40.326Z,86.78
2023-05-02T02:05:39.961Z,86.77
2023-05-02T02:06:40.406Z,86.76
2023-05-02T02:07:39.894Z,86.78
2023-05-02T02:08:40.585Z,86.77
2023-05-02T02:09:40.580Z,86.77
2023-05-02T02:10:39.891Z,86.78
2023-05-02T02:11:39.839Z,86.79
2023-05-02T02:12:39.867Z,86.81
2023-05-02T02:13:39.829Z,86.81
2023-05-02T02:14:39.863Z,86.82
2023-05-02T02:15:39.834Z,86.83
2023-05-02T02:16:39.896Z,86.80
2023-05-02T02:17:39.864Z,86.83
2023-05-02T02:18:39.790Z,86.87
2023-05-02T02:19:39.792Z,86.91
2023-05-02T02:20:39.778Z,86.95
2023-05-02T02:21:39.912Z,86.93
2023-05-02T02:22:39.922Z,86.90
2023-05-02T02:23:39.725Z,86.90
2023-05-02T02:24:39.739Z,86.90
2023-05-02T02:25:39.706Z,86.90
2023-05-02T02:26:39.688Z,86.95
2023-05-02T02:27:39.726Z,86.99
2023-05-02T02:28:40.006Z,87.01
2023-05-02T02:29:39.993Z,86.99
2023-05-02T02:30:40.030Z,86.99
2023-05-02T02:31:39.617Z,87.00
2023-05-02T02:32:39.640Z,86.99
2023-05-02T02:33:39.592Z,87.01
2023-05-02T02:34:39.597Z,87.01
2023-05-02T02:35:39.592Z,87.03
2023-05-02T02:36:39.573Z,87.02
2023-05-02T02:37:39.573Z,87.02
2023-05-02T02:38:39.586Z,87.03
2023-05-02T02:39:39.533Z,87.08
2023-05-02T02:40:39.585Z,87.11
2023-05-02T02:41:39.496Z,87.10
2023-05-02T02:42:39.511Z,87.16
2023-05-02T02:43:39.792Z,87.16
2023-05-02T02:44:39.482Z,87.16
2023-05-02T02:45:39.454Z,87.18
2023-05-02T02:46:39.691Z,87.24
2023-05-02T02:47:39.461Z,87.25
2023-05-02T02:48:39.455Z,87.23
2023-05-02T02:49:39.617Z,87.27
2023-05-02T02:50:39.465Z,87.28
2023-05-02T02:51:39.422Z,87.30
2023-05-02T02:52:39.375Z,87.31
2023-05-02T02:53:39.375Z,87.36
2023-05-02T02:54:39.380Z,87.35
2023-05-02T02:55:39.364Z,87.33
2023-05-02T02:56:39.365Z,87.34
2023-05-02T02:57:39.310Z,87.30
2023-05-02T02:58:39.318Z,87.26
2023-05-02T02:59:39.328Z,87.13
2023-05-02T03:00:39.290Z,87.00
2023-05-02T03:01:39.358Z,86.94
2023-05-02T03:02:39.308Z,86.86
2023-05-02T03:03:39.308Z,86.57
2023-05-02T03:04:39.276Z,86.33
2023-05-02T03:05:39.220Z,86.18
2023-05-02T03:06:39.308Z,85.93
2023-05-02T03:07:39.200Z,85.52
2023-05-02T03:08:39.201Z,85.35
2023-05-02T03:09:39.185Z,85.01
2023-05-02T03:10:39.621Z,84.89
2023-05-02T03:11:39.167Z,84.82
2023-05-02T03:12:39.157Z,84.80
2023-05-02T03:13:39.168Z,84.76
2023-05-02T03:14:39.116Z,84.69
2023-05-02T03:15:39.165Z,84.58
2023-05-02T03:16:39.208Z,84.52
2023-05-02T03:17:39.153Z,84.51
2023-05-02T03:18:39.088Z,84.26
2023-05-02T03:19:39.177Z,84.07
2023-05-02T03:20:39.057Z,84.09
2023-05-02T03:21:39.064Z,84.06
2023-05-02T03:22:39.058Z,83.92
2023-05-02T03:23:39.007Z,83.77
2023-05-02T03:24:39.011Z,83.69
2023-05-02T03:25:39.034Z,83.69
2023-05-02T03:26:39.012Z,83.66
2023-05-02T03:27:38.993Z,83.60
2023-05-02T03:28:39.241Z,83.61
2023-05-02T03:29:39.494Z,83.64
2023-05-02T03:30:38.936Z,83.63
2023-05-02T03:31:39.240Z,83.69
2023-05-02T03:32:38.961Z,83.67
2023-05-02T03:33:38.894Z,83.66
2023-05-02T03:34:38.893Z,83.72
2023-05-02T03:35:38.870Z,83.55
2023-05-02T03:36:38.878Z,83.52
2023-05-02T03:37:38.846Z,83.60
2023-05-02T03:38:38.941Z,83.68
2023-05-02T03:39:38.949Z,83.60
2023-05-02T03:40:38.828Z,83.64
2023-05-02T03:41:38.840Z,83.57
2023-05-02T03:42:38.973Z,83.45
2023-05-02T03:43:39.004Z,83.50
2023-05-02T03:44:38.795Z,83.46
2023-05-02T03:45:38.794Z,83.51
2023-05-02T03:46:39.108Z,83.59
2023-05-02T03:47:39.095Z,83.63
2023-05-02T03:48:38.739Z,83.63
2023-05-02T03:49:38.739Z,83.58
2023-05-02T03:50:39.108Z,83.61
2023-05-02T03:51:38.686Z,83.64
2023-05-02T03:52:38.705Z,83.60
2023-05-02T03:53:38.682Z,83.58
2023-05-02T03:54:38.658Z,83.61
2023-05-02T03:55:38.664Z,83.69
2023-05-02T03:56:39.822Z,83.69
2023-05-02T03:57:38.610Z,83.74
2023-05-02T03:58:38.669Z,83.76
2023-05-02T03:59:38.660Z,83.74
2023-05-02T04:00:38.589Z,83.78
2023-05-02T04:01:38.601Z,83.59
2023-05-02T04:02:38.764Z,83.32
2023-05-02T04:03:38.674Z,83.24
2023-05-02T04:04:38.737Z,83.15
2023-05-02T04:05:38.650Z,82.94
2023-05-02T04:06:38.808Z,82.70
2023-05-02T04:07:38.623Z,82.70
2023-05-02T04:08:38.664Z,82.66
2023-05-02T04:09:38.486Z,82.62
2023-05-02T04:10:38.481Z,82.59
2023-05-02T04:11:38.697Z,82.10
2023-05-02T04:12:38.453Z,82.12
2023-05-02T04:13:38.476Z,82.17
2023-05-02T04:14:38.675Z,82.17
2023-05-02T04:15:38.668Z,82.16
2023-05-02T04:16:38.501Z,82.03
2023-05-02T04:17:38.421Z,82.05
2023-05-02T04:18:38.375Z,81.98
2023-05-02T04:19:38.669Z,82.00
2023-05-02T04:20:38.674Z,82.02
2023-05-02T04:21:38.372Z,81.87
2023-05-02T04:22:38.345Z,81.63
2023-05-02T04:23:38.694Z,81.66
2023-05-02T04:24:38.321Z,81.76
2023-05-02T04:25:38.288Z,81.86
2023-05-02T04:26:38.681Z,81.99
2023-05-02T04:27:38.690Z,82.05
2023-05-02T04:28:38.265Z,82.03
2023-05-02T04:29:38.402Z,82.01
2023-05-02T04:30:38.302Z,81.97
2023-05-02T04:31:38.734Z,81.73
2023-05-02T04:32:38.398Z,81.59
2023-05-02T04:33:38.195Z,81.57
2023-05-02T04:34:38.213Z,81.51
2023-05-02T04:35:38.697Z,81.58
2023-05-02T04:36:38.185Z,81.70
2023-05-02T04:37:38.192Z,81.81
2023-05-02T04:38:38.147Z,81.86
2023-05-02T04:39:38.125Z,81.94
2023-05-02T04:40:38.116Z,81.97
2023-05-02T04:41:38.099Z,82.03
2023-05-02T04:42:38.107Z,82.03
2023-05-02T04:43:38.693Z,81.99
2023-05-02T04:44:38.474Z,82.02
2023-05-02T04:45:38.037Z,81.86
2023-05-02T04:46:38.402Z,81.60
2023-05-02T04:47:38.451Z,81.49
2023-05-02T04:48:38.010Z,81.50
2023-05-02T04:49:37.992Z,81.63
2023-05-02T04:50:38.053Z,81.68
2023-05-02T04:51:38.108Z,81.71
2023-05-02T04:52:37.982Z,81.76
2023-05-02T04:53:37.983Z,81.89
2023-05-02T04:54:37.988Z,82.03
2023-05-02T04:55:37.920Z,81.97
2023-05-02T04:56:37.943Z,81.98
2023-05-02T04:57:37.959Z,82.14
2023-05-02T04:58:37.905Z,82.00
2023-05-02T04:59:38.028Z,82.01
2023-05-02T05:00:37.915Z,82.04
2023-05-02T05:01:38.152Z,82.17
2023-05-02T05:02:38.203Z,82.34
2023-05-02T05:03:38.296Z,82.49
2023-05-02T05:04:38.090Z,82.56
2023-05-02T05:05:37.852Z,82.64
2023-05-02T05:06:38.246Z,82.68
2023-05-02T05:07:37.795Z,82.63
2023-05-02T05:08:38.152Z,82.69
2023-05-02T05:09:37.773Z,82.82
2023-05-02T05:10:38.162Z,82.90
2023-05-02T05:11:37.749Z,83.01
2023-05-02T05:12:38.201Z,82.93
2023-05-02T05:13:37.724Z,82.92
2023-05-02T05:14:37.754Z,82.89
2023-05-02T05:15:37.682Z,83.05
2023-05-02T05:16:37.761Z,83.08
2023-05-02T05:17:38.285Z,83.12
2023-05-02T05:18:37.725Z,83.21
2023-05-02T05:19:37.724Z,83.23
2023-05-02T05:20:37.739Z,83.17
2023-05-02T05:21:38.314Z,83.16
2023-05-02T05:22:37.829Z,83.20
2023-05-02T05:23:37.729Z,83.25
2023-05-02T05:24:37.736Z,83.23
2023-05-02T05:25:37.726Z,83.18
2023-05-02T05:26:37.617Z,83.22
2023-05-02T05:27:37.764Z,83.23
2023-05-02T05:28:37.736Z,83.25
2023-05-02T05:29:37.550Z,83.25
2023-05-02T05:30:38.425Z,83.23
2023-05-02T05:31:37.870Z,83.27
2023-05-02T05:32:38.061Z,83.22
2023-05-02T05:33:38.358Z,83.09
2023-05-02T05:34:37.752Z,83.04
2023-05-02T05:35:37.734Z,83.06
2023-05-02T05:36:37.490Z,83.10
2023-05-02T05:37:37.470Z,83.25
2023-05-02T05:38:37.523Z,83.20
2023-05-02T05:39:37.436Z,83.17
2023-05-02T05:40:37.593Z,83.21
2023-05-02T05:41:37.609Z,83.05
2023-05-02T05:42:37.645Z,83.01
2023-05-02T05:43:38.395Z,83.01
2023-05-02T05:44:37.378Z,83.05
2023-05-02T05:45:37.348Z,83.13
2023-05-02T05:46:37.811Z,83.06
2023-05-02T05:47:37.769Z,82.97
2023-05-02T05:48:37.329Z,82.95
2023-05-02T05:49:38.792Z,83.04
2023-05-02T05:50:37.755Z,83.01
2023-05-02T05:51:37.740Z,82.94
2023-05-02T05:52:37.284Z,82.99
2023-05-02T05:53:37.246Z,82.90
2023-05-02T05:54:37.237Z,82.76
2023-05-02T05:55:37.545Z,82.69
2023-05-02T05:56:37.264Z,82.67
2023-05-02T05:57:37.202Z,82.60
2023-05-02T05:58:37.240Z,82.55
2023-05-02T05:59:37.493Z,82.51
2023-05-02T06:00:37.171Z,82.46
2023-05-02T06:01:37.144Z,82.48
2023-05-02T06:02:37.701Z,82.62
2023-05-02T06:03:37.383Z,82.60
2023-05-02T06:04:37.139Z,82.54
2023-05-02T06:05:37.193Z,82.44
2023-05-02T06:06:37.545Z,82.32
2023-05-02T06:07:37.790Z,82.33
2023-05-02T06:08:37.112Z,82.33
2023-05-02T06:09:37.197Z,82.41
2023-05-02T06:10:37.036Z,82.48
2023-05-02T06:11:37.763Z,82.54
2023-05-02T06:12:37.047Z,82.61
2023-05-02T06:13:37.022Z,82.56
2023-05-02T06:14:36.989Z,82.45
2023-05-02T06:15:37.034Z,82.48
2023-05-02T06:16:37.118Z,82.50
2023-05-02T06:17:37.075Z,82.53
2023-05-02T06:18:37.054Z,82.65
2023-05-02T06:19:36.950Z,82.69
2023-05-02T06:20:37.095Z,82.71
2023-05-02T06:21:37.105Z,82.82
2023-05-02T06:22:36.901Z,82.91
2023-05-02T06:23:36.917Z,83.02
2023-05-02T06:24:36.886Z,83.08
2023-05-02T06:25:36.891Z,83.04
2023-05-02T06:26:36.860Z,82.92
2023-05-02T06:27:37.056Z,82.78
2023-05-02T06:28:36.837Z,82.80
2023-05-02T06:29:36.845Z,82.94
2023-05-02T06:30:36.806Z,82.98
2023-05-02T06:31:36.896Z,83.17
2023-05-02T06:32:36.808Z,83.17
2023-05-02T06:33:36.785Z,83.24
2023-05-02T06:34:36.768Z,83.41
2023-05-02T06:35:36.777Z,83.48
2023-05-02T06:36:36.723Z,83.56
2023-05-02T06:37:36.746Z,83.44
2023-05-02T06:38:36.714Z,83.43
2023-05-02T06:39:36.781Z,83.44
2023-05-02T06:40:36.680Z,83.48
2023-05-02T06:41:36.703Z,83.66
2023-05-02T06:42:36.653Z,83.93
2023-05-02T06:43:36.657Z,84.11
2023-05-02T06:44:36.636Z,84.16
2023-05-02T06:45:36.630Z,84.25
2023-05-02T06:46:36.665Z,84.30
2023-05-02T06:47:36.800Z,84.30
2023-05-02T06:48:36.610Z,84.37
2023-05-02T06:49:36.591Z,84.38
2023-05-02T06:50:36.786Z,84.10
2023-05-02T06:51:36.583Z,84.04
2023-05-02T06:52:36.539Z,83.93
2023-05-02T06:53:36.545Z,83.80
2023-05-02T06:54:36.551Z,83.77
2023-05-02T06:55:36.535Z,83.78
2023-05-02T06:56:36.506Z,83.94
2023-05-02T06:57:36.796Z,84.06
2023-05-02T06:58:36.471Z,84.28
2023-05-02T06:59:36.478Z,84.47
2023-05-02T07:00:36.479Z,84.47
2023-05-02T07:01:36.928Z,84.48
2023-05-02T07:02:36.798Z,84.56
2023-05-02T07:03:36.454Z,84.44
2023-05-02T07:04:36.530Z,84.25
2023-05-02T07:05:36.815Z,84.24
2023-05-02T07:06:36.461Z,84.12
2023-05-02T07:07:36.807Z,84.15
2023-05-02T07:08:36.804Z,84.25
2023-05-02T07:09:36.433Z,84.43
2023-05-02T07:10:36.360Z,84.65
2023-05-02T07:11:36.338Z,84.82
2023-05-02T07:12:36.447Z,84.74
2023-05-02T07:13:36.500Z,84.81
2023-05-02T07:14:36.359Z,84.85
2023-05-02T07:15:36.283Z,85.06
2023-05-02T07:16:36.308Z,85.11
2023-05-02T07:17:36.351Z,85.23
2023-05-02T07:18:36.253Z,85.28
2023-05-02T07:19:36.241Z,85.32
2023-05-02T07:20:36.230Z,85.37
2023-05-02T07:21:36.242Z,85.45
2023-05-02T07:22:36.793Z,85.57
2023-05-02T07:23:36.696Z,85.54
2023-05-02T07:24:36.172Z,85.55
2023-05-02T07:25:36.166Z,85.59
2023-05-02T07:26:36.819Z,85.54
2023-05-02T07:27:36.828Z,85.48
2023-05-02T07:28:36.838Z,85.34
2023-05-02T07:29:36.820Z,85.17
2023-05-02T07:30:36.399Z,84.89
2023-05-02T07:31:36.883Z,84.45
2023-05-02T07:32:36.860Z,84.14
2023-05-02T07:33:36.301Z,83.74
2023-05-02T07:34:36.063Z,83.58
2023-05-02T07:35:36.071Z,83.50
2023-05-02T07:36:36.079Z,83.47
2023-05-02T07:37:36.122Z,83.44
2023-05-02T07:38:36.112Z,83.45
2023-05-02T07:39:36.125Z,83.35
2023-05-02T07:40:36.011Z,83.34
2023-05-02T07:41:36.248Z,83.35
2023-05-02T07:42:36.173Z,83.69
2023-05-02T07:43:35.978Z,83.62
2023-05-02T07:44:36.205Z,83.33
2023-05-02T07:45:36.240Z,83.21
2023-05-02T07:46:36.088Z,83.21
2023-05-02T07:47:36.352Z,83.20
2023-05-02T07:48:36.087Z,82.93
2023-05-02T07:49:36.200Z,82.86
2023-05-02T07:50:35.860Z,82.35
2023-05-02T07:51:36.309Z,81.89
2023-05-02T07:52:35.845Z,81.70
2023-05-02T07:53:35.876Z,81.72
2023-05-02T07:54:35.904Z,81.72
2023-05-02T07:55:35.817Z,81.26
2023-05-02T07:56:35.827Z,81.08
2023-05-02T07:57:35.846Z,81.08
2023-05-02T07:58:35.850Z,81.09
2023-05-02T07:59:35.800Z,81.32
2023-05-02T08:00:35.789Z,81.16
2023-05-02T08:01:35.852Z,80.79
2023-05-02T08:02:35.778Z,80.22
2023-05-02T08:03:36.059Z,80.09
2023-05-02T08:04:35.730Z,79.79
2023-05-02T08:05:35.737Z,79.48
2023-05-02T08:06:35.945Z,79.44
2023-05-02T08:07:37.079Z,79.47
2023-05-02T08:08:35.684Z,79.51
2023-05-02T08:09:35.869Z,79.76
2023-05-02T08:10:35.644Z,79.80
2023-05-02T08:11:35.635Z,79.83
2023-05-02T08:12:35.627Z,79.87
2023-05-02T08:13:35.604Z,79.72
2023-05-02T08:14:35.862Z,79.96
2023-05-02T08:15:35.619Z,79.80
2023-05-02T08:16:35.613Z,79.90
2023-05-02T08:17:35.607Z,80.11
2023-05-02T08:18:35.550Z,80.21
2023-05-02T08:19:35.565Z,79.96
2023-05-02T08:20:35.531Z,79.90
2023-05-02T08:21:35.542Z,79.73
2023-05-02T08:22:35.872Z,79.64
2023-05-02T08:23:35.507Z,80.08
2023-05-02T08:24:35.485Z,80.65
2023-05-02T08:25:35.527Z,80.96
2023-05-02T08:26:35.468Z,80.97
2023-05-02T08:27:35.571Z,81.03
2023-05-02T08:28:35.450Z,81.34
2023-05-02T08:29:35.452Z,81.97
2023-05-02T08:30:35.483Z,82.38
2023-05-02T08:31:35.462Z,82.90
2023-05-02T08:32:35.430Z,82.97
2023-05-02T08:33:35.388Z,83.24
2023-05-02T08:34:35.375Z,83.25
2023-05-02T08:35:35.377Z,83.40
2023-05-02T08:36:35.369Z,83.80
2023-05-02T08:37:35.367Z,84.29
2023-05-02T08:38:35.887Z,84.61
2023-05-02T08:39:35.318Z,84.50
2023-05-02T08:40:41.566Z,84.51
2023-05-02T08:41:36.316Z,84.62
2023-05-02T08:42:35.264Z,84.85
2023-05-02T08:43:35.274Z,84.70
2023-05-02T08:44:35.253Z,84.40
2023-05-02T08:45:35.269Z,84.50
2023-05-02T08:46:35.531Z,84.87
2023-05-02T08:47:35.313Z,84.78
2023-05-02T08:48:35.213Z,84.86
2023-05-02T08:49:35.212Z,84.89
2023-05-02T08:50:35.155Z,85.03
2023-05-02T08:51:35.230Z,85.29
2023-05-02T08:52:35.161Z,85.41
2023-05-02T08:53:35.154Z,85.51
2023-05-02T08:54:35.196Z,85.49
2023-05-02T08:55:35.173Z,85.31
2023-05-02T08:56:35.097Z,85.35
2023-05-02T08:57:35.257Z,85.27
2023-05-02T08:58:35.230Z,85.43
2023-05-02T08:59:35.258Z,85.39
2023-05-02T09:00:35.056Z,85.82
2023-05-02T09:01:35.094Z,85.98
2023-05-02T09:02:35.358Z,85.61
2023-05-02T09:03:35.338Z,85.38
2023-05-02T09:04:35.381Z,85.46
2023-05-02T09:05:35.016Z,85.64
2023-05-02T09:06:35.028Z,85.81
2023-05-02T09:07:35.023Z,85.78
2023-05-02T09:08:34.996Z,85.59
2023-05-02T09:09:34.949Z,85.50
2023-05-02T09:10:35.299Z,85.16
2023-05-02T09:11:34.948Z,85.05
2023-05-02T09:12:35.025Z,85.22
2023-05-02T09:13:34.949Z,85.23
2023-05-02T09:14:34.880Z,85.23
2023-05-02T09:15:34.920Z,84.45
2023-05-02T09:16:34.963Z,84.34
2023-05-02T09:17:34.906Z,84.30
2023-05-02T09:18:34.846Z,83.77
2023-05-02T09:19:34.872Z,83.80
2023-05-02T09:20:34.826Z,84.15
2023-05-02T09:21:34.859Z,83.63
2023-05-02T09:22:34.821Z,83.40
2023-05-02T09:23:34.832Z,83.39
2023-05-02T09:24:34.795Z,83.70
2023-05-02T09:25:34.795Z,83.48
2023-05-02T09:26:34.747Z,82.94
2023-05-02T09:27:34.760Z,83.16
2023-05-02T09:28:34.738Z,83.16
2023-05-02T09:29:34.754Z,82.87
2023-05-02T09:30:34.769Z,82.87
2023-05-02T09:32:34.746Z,83.12
2023-05-02T09:33:34.707Z,83.11
2023-05-02T09:34:34.686Z,83.17
2023-05-02T09:35:34.681Z,83.42
2023-05-02T09:36:34.640Z,83.84
2023-05-02T09:37:34.695Z,83.99
2023-05-02T09:38:34.635Z,83.91
2023-05-02T09:39:34.686Z,83.77
2023-05-02T09:40:34.578Z,83.56
2023-05-02T09:41:34.593Z,83.14
2023-05-02T09:42:34.648Z,83.41
2023-05-02T09:43:34.584Z,83.61
2023-05-02T09:44:34.602Z,83.52
2023-05-02T09:45:34.569Z,83.65
2023-05-02T09:46:34.601Z,83.50
2023-05-02T09:47:34.574Z,83.49
2023-05-02T09:48:34.505Z,82.64
2023-05-02T09:49:34.499Z,82.01
2023-05-02T09:50:35.190Z,82.55
2023-05-02T09:51:34.469Z,81.79
2023-05-02T09:52:34.477Z,81.77
2023-05-02T09:53:34.509Z,81.64
2023-05-02T09:54:34.463Z,81.36
2023-05-02T09:55:34.465Z,79.98
2023-05-02T09:56:34.416Z,79.03
2023-05-02T09:57:34.447Z,78.77
2023-05-02T09:58:34.959Z,78.45
2023-05-02T09:59:34.411Z,78.18
2023-05-02T10:00:34.371Z,78.12
2023-05-02T10:01:34.398Z,78.46
2023-05-02T10:02:34.459Z,78.21
2023-05-02T10:03:34.349Z,78.53
2023-05-02T10:04:34.537Z,78.69
2023-05-02T10:05:34.305Z,78.80
2023-05-02T10:06:34.987Z,78.68
2023-05-02T10:07:35.195Z,78.56
2023-05-02T10:08:34.472Z,78.24
2023-05-02T10:09:34.266Z,78.39
2023-05-02T10:10:34.230Z,78.74
2023-05-02T10:11:34.241Z,78.93
2023-05-02T10:12:34.206Z,78.52
2023-05-02T10:13:34.234Z,77.04
2023-05-02T10:14:34.292Z,77.65
2023-05-02T10:15:34.253Z,78.71
2023-05-02T10:16:34.214Z,79.02
2023-05-02T10:17:34.223Z,78.66
2023-05-02T10:18:34.161Z,78.70
2023-05-02T10:19:34.131Z,78.09
2023-05-02T10:20:34.147Z,78.34
2023-05-02T10:21:34.107Z,78.89
2023-05-02T10:22:34.124Z,78.61
2023-05-02T10:23:34.112Z,78.67
2023-05-02T10:24:34.096Z,78.62
2023-05-02T10:25:34.057Z,79.05
2023-05-02T10:26:34.461Z,79.01
2023-05-02T10:27:34.062Z,79.16
2023-05-02T10:28:34.072Z,79.52
2023-05-02T10:29:34.012Z,79.83
2023-05-02T10:30:34.050Z,78.69
2023-05-02T10:31:34.081Z,78.92
2023-05-02T10:32:34.032Z,78.88
2023-05-02T10:33:33.982Z,78.54
2023-05-02T10:34:34.015Z,78.21
2023-05-02T10:35:33.941Z,77.93
2023-05-02T10:36:33.956Z,78.18
2023-05-02T10:37:33.954Z,78.51
2023-05-02T10:38:33.974Z,78.35
2023-05-02T10:39:33.904Z,78.11
2023-05-02T10:40:33.916Z,78.14
2023-05-02T10:41:33.874Z,78.18
2023-05-02T10:42:33.875Z,78.53
2023-05-02T10:43:33.881Z,78.40
2023-05-02T10:44:33.861Z,78.07
2023-05-02T10:45:33.825Z,78.59
2023-05-02T10:46:33.894Z,78.31
2023-05-02T10:47:33.825Z,77.07
2023-05-02T10:48:33.809Z,76.50
2023-05-02T10:49:33.795Z,75.91
2023-05-02T10:50:33.777Z,74.74
2023-05-02T10:51:33.802Z,75.14
2023-05-02T10:52:33.764Z,75.61
2023-05-02T10:53:33.764Z,76.39
2023-05-02T10:54:33.762Z,76.51
2023-05-02T10:55:33.702Z,75.89
2023-05-02T10:56:33.995Z,75.23
2023-05-02T10:57:33.980Z,75.15
2023-05-02T10:58:33.675Z,74.80
2023-05-02T10:59:33.677Z,74.82
2023-05-02T11:00:33.919Z,75.21
2023-05-02T11:01:33.707Z,76.02
2023-05-02T11:02:33.690Z,75.42
2023-05-02T11:03:33.735Z,75.40
2023-05-02T11:04:33.606Z,76.27
2023-05-02T11:05:33.607Z,75.99
2023-05-02T11:06:33.744Z,76.19
2023-05-02T11:07:33.599Z,76.52
2023-05-02T11:08:33.569Z,76.98
2023-05-02T11:09:33.549Z,76.64
2023-05-02T11:10:33.570Z,75.54
2023-05-02T11:11:33.521Z,76.21
2023-05-02T11:12:33.997Z,75.48
2023-05-02T11:13:33.498Z,75.40
2023-05-02T11:14:33.506Z,74.79
2023-05-02T11:15:33.505Z,74.87
2023-05-02T11:16:33.553Z,75.01
2023-05-02T11:17:33.508Z,74.51
2023-05-02T11:18:33.445Z,74.60
2023-05-02T11:19:33.457Z,74.63
2023-05-02T11:20:33.999Z,74.44
2023-05-02T11:21:33.426Z,74.93
2023-05-02T11:22:33.405Z,75.09
2023-05-02T11:23:33.520Z,75.40
2023-05-02T11:24:33.409Z,75.61
2023-05-02T11:25:33.366Z,75.69
2023-05-02T11:26:33.373Z,76.01
2023-05-02T11:27:34.007Z,76.04
2023-05-02T11:28:34.017Z,75.82
2023-05-02T11:29:33.323Z,75.41
2023-05-02T11:30:33.318Z,75.15
2023-05-02T11:31:33.318Z,75.23
2023-05-02T11:32:33.403Z,75.08
2023-05-02T11:33:33.262Z,74.96
2023-05-02T11:34:33.283Z,74.48
2023-05-02T11:35:33.340Z,75.02
2023-05-02T11:36:33.710Z,75.41
2023-05-02T11:37:33.231Z,75.28
2023-05-02T11:38:33.231Z,74.83
2023-05-02T11:39:33.212Z,74.69
2023-05-02T11:40:33.232Z,73.53
2023-05-02T11:41:33.195Z,73.63
2023-05-02T11:42:33.214Z,74.10
2023-05-02T11:43:33.173Z,74.38
2023-05-02T11:44:33.171Z,74.62
2023-05-02T11:45:33.137Z,74.88
2023-05-02T11:46:33.282Z,74.12
2023-05-02T11:47:33.203Z,73.46
2023-05-02T11:48:33.314Z,71.45
2023-05-02T11:49:33.103Z,71.65
2023-05-02T11:50:33.096Z,71.42
2023-05-02T11:51:33.057Z,72.33
2023-05-02T11:52:33.060Z,71.43
2023-05-02T11:53:33.071Z,71.86
2023-05-02T11:54:33.037Z,71.89
2023-05-02T11:55:33.008Z,72.99
2023-05-02T11:56:33.014Z,71.96
2023-05-02T11:57:32.989Z,70.83
2023-05-02T11:58:33.085Z,70.32
2023-05-02T11:59:32.958Z,70.70
2023-05-02T12:00:32.967Z,71.32
2023-05-02T12:01:32.944Z,70.83
2023-05-02T12:02:32.992Z,70.79
2023-05-02T12:03:33.145Z,70.58
2023-05-02T12:04:32.922Z,69.78
2023-05-02T12:05:32.997Z,70.10
2023-05-02T12:06:32.960Z,70.17
2023-05-02T12:07:32.872Z,69.95
2023-05-02T12:08:32.902Z,70.05
2023-05-02T12:09:32.851Z,68.87
2023-05-02T12:10:32.867Z,69.10
2023-05-02T12:11:32.816Z,69.59
2023-05-02T12:12:32.812Z,69.71
2023-05-02T12:13:32.825Z,69.61
2023-05-02T12:14:32.812Z,69.09
2023-05-02T12:15:32.773Z,69.07
2023-05-02T12:16:32.884Z,68.16
2023-05-02T12:17:32.852Z,68.34
2023-05-02T12:18:32.785Z,68.58
2023-05-02T12:19:32.725Z,68.88
2023-05-02T12:20:32.744Z,69.26
2023-05-02T12:21:32.705Z,69.12
2023-05-02T12:22:32.745Z,69.36
2023-05-02T12:23:33.655Z,69.67
2023-05-02T12:24:32.688Z,69.23
2023-05-02T12:25:32.659Z,70.07
2023-05-02T12:26:32.712Z,68.84
2023-05-02T12:27:32.643Z,68.39
2023-05-02T12:28:32.647Z,68.13
2023-05-02T12:29:32.609Z,68.57
2023-05-02T12:30:32.639Z,68.65
2023-05-02T12:31:32.643Z,68.02
2023-05-02T12:32:32.630Z,68.12
2023-05-02T12:33:32.580Z,67.75
2023-05-02T12:34:32.573Z,67.25
2023-05-02T12:35:32.547Z,66.97
2023-05-02T12:36:32.550Z,66.79
2023-05-02T12:37:32.521Z,66.75
2023-05-02T12:38:32.524Z,66.71
2023-05-02T12:39:32.512Z,67.05
2023-05-02T12:40:32.509Z,67.69
2023-05-02T12:41:32.485Z,67.46
2023-05-02T12:42:32.471Z,67.30
2023-05-02T12:43:32.446Z,67.82
2023-05-02T12:44:32.468Z,68.16
2023-05-02T12:45:32.459Z,68.15
2023-05-02T12:46:32.856Z,68.11
2023-05-02T12:47:32.457Z,68.06
2023-05-02T12:48:32.435Z,67.14
2023-05-02T12:49:32.388Z,65.86
2023-05-02T12:50:32.381Z,67.05
2023-05-02T12:51:32.358Z,67.63
2023-05-02T12:52:32.348Z,67.92
2023-05-02T12:53:32.330Z,66.64